Chise Bulker — 3FGT7 — position and weather

sailwx.info

Track history (hours):
 
Tides and Currents Weather Stations Pressure Air Temp Water Temp Dewpoint Dewpoint Depression Visibility Wind Speed Wind Dir Waves Ship Positions

Chise Bulker

Last reported at 2018-Feb-20 00:40 UTC. Time now 2018-Jun-24 12:53 UTC.
Position S 23°23' W 042°34'.
Warning: this ship's position is months out of date.

Length 179 m; draft 9.8 m.

Type: Cargo ship. MMSI: 370392000.

Date/timePositionNaut miles runAvg speedWind from/ knotsBaromVisibWave heightAir tempDewpointWater temp
2018-Feb-20 00:40S 23°23' W 042°34'210.8
2018-Feb-20 00:27S 23°24' W 042°37'610.8
2018-Feb-19 23:54S 23°25' W 042°43'1310.4
2018-Feb-19 22:41S 23°29' W 042°56'210.4
2018-Feb-19 22:27S 23°30' W 042°59'510.5
2018-Feb-19 22:00S 23°31' W 043°04'610.7
2018-Feb-19 21:25S 23°33' W 043°10'410.8
2018-Feb-19 21:00S 23°34' W 043°15'510.8
2018-Feb-19 20:30S 23°36' W 043°20'510.8
2018-Feb-19 20:00S 23°38' W 043°26'610.8
2018-Feb-19 19:28S 23°39' W 043°32'510.8
2018-Feb-19 19:01S 23°41' W 043°37'610.8
2018-Feb-19 18:29S 23°43' W 043°43'1011.0
2018-Feb-19 17:33S 23°46' W 043°54'011.1
2018-Feb-19 17:30S 23°46' W 043°54'13810.0
2018-Feb-19 03:47S 24°07' W 046°23'311.7
2018-Feb-19 03:30S 24°03' W 046°22'5 9.0
2018-Feb-19 03:00S 23°60' W 046°19'2 4.9
2018-Feb-19 02:30S 23°57' W 046°18'3 6.8
2018-Feb-19 02:00S 23°55' W 046°21'2 4.6
2018-Feb-19 01:30S 23°53' W 046°23'0 0.0
2018-Feb-17 12:54S 23°53' W 046°22'0 0.0
2018-Feb-17 07:56S 23°53' W 046°22'0 0.0
2018-Feb-17 07:26S 23°53' W 046°22'0 0.0
2018-Feb-17 06:38S 23°53' W 046°22'0 0.0
2018-Feb-17 06:14S 23°53' W 046°22'0 0.0
2018-Feb-17 05:56S 23°53' W 046°22'0 0.0
2018-Feb-17 05:26S 23°53' W 046°22'0 0.0
2018-Feb-17 04:50S 23°53' W 046°22'0 0.0
2018-Feb-17 04:14S 23°53' W 046°22'0 0.0
2018-Feb-17 03:56S 23°53' W 046°22'0 0.0
2018-Feb-17 03:02S 23°53' W 046°22'0 0.0
2018-Feb-16 16:44S 23°53' W 046°22'0 0.0
2018-Feb-16 15:21S 23°53' W 046°22'0 0.4
2018-Feb-16 15:00S 23°53' W 046°23'3 4.7
2018-Feb-16 14:28S 23°55' W 046°22'4 7.8
2018-Feb-16 14:00S 23°57' W 046°18'3 5.3
2018-Feb-16 13:30S 23°60' W 046°19'611.2
2018-Feb-16 12:59S 24°05' W 046°22'1 1.0
2018-Feb-16 12:16S 24°06' W 046°22'0 0.0
2018-Feb-16 11:58S 24°06' W 046°22'0 0.0
2018-Feb-16 11:16S 24°06' W 046°22'0 0.0
2018-Feb-16 10:58S 24°06' W 046°22'0 0.0
2018-Feb-16 10:16S 24°06' W 046°22'0 0.0
2018-Feb-16 09:28S 24°06' W 046°22'0 0.0
2018-Feb-16 08:58S 24°06' W 046°22'0 0.0
2018-Feb-16 08:28S 24°06' W 046°22'0 0.0
2018-Feb-16 07:55S 24°06' W 046°22'0 0.0
2018-Feb-16 07:28S 24°06' W 046°22'0 0.0
2018-Feb-16 06:58S 24°06' W 046°22'0 0.0
2018-Feb-15 21:52S 24°06' W 046°22'0 0.0
2018-Feb-15 21:04S 24°06' W 046°22'0 0.0
2018-Feb-15 20:46S 24°06' W 046°22'0 0.1
2018-Feb-15 20:04S 24°06' W 046°22'0 0.0
2018-Feb-15 19:58S 24°06' W 046°22'0 0.0
2018-Feb-14 12:00S 24°06' W 046°22'2 0.7
2018-Feb-14 08:40S 24°03' W 046°21'0 0.1
2018-Feb-14 07:43S 24°03' W 046°21'0 0.0
2018-Feb-14 07:16S 24°03' W 046°21'0 0.0
2018-Feb-14 06:19S 24°03' W 046°21'0 0.1
2018-Feb-14 05:52S 24°03' W 046°21'0 0.0
2018-Feb-14 03:52S 24°03' W 046°21'0 0.0
2018-Feb-14 03:22S 24°03' W 046°21'0 0.0
2018-Feb-13 14:52S 24°03' W 046°21'0 0.1
2018-Feb-13 14:22S 24°03' W 046°21'0 0.0
2018-Feb-13 13:52S 24°03' W 046°21'0 0.0
2018-Feb-13 12:40S 24°03' W 046°21'0 0.1
2018-Feb-13 12:22S 24°03' W 046°21'0 0.0
2018-Feb-13 07:13S 24°03' W 046°21'0 0.0
2018-Feb-13 06:58S 24°03' W 046°21'0 0.0
2018-Feb-13 06:28S 24°03' W 046°21'0 0.0
2018-Feb-13 05:34S 24°03' W 046°21'0 0.1
2018-Feb-13 05:22S 24°03' W 046°21'0 0.4
2018-Feb-13 05:00S 24°03' W 046°21'0 0.1
2018-Feb-13 04:26S 24°03' W 046°21'2 3.9
2018-Feb-13 04:00S 24°05' W 046°22'14210.5
2018-Feb-12 14:25S 23°44' W 043°48'612.4
2018-Feb-12 13:57S 23°42' W 043°42'512.3
2018-Feb-12 13:30S 23°40' W 043°36'612.4
2018-Feb-12 12:59S 23°39' W 043°30'612.5
2018-Feb-12 12:30S 23°37' W 043°23'612.7
2018-Feb-12 12:00S 23°35' W 043°17'612.7
2018-Feb-12 11:30S 23°33' W 043°10'612.7
2018-Feb-12 11:00S 23°31' W 043°04'1712.8
2018-Feb-12 09:41S 23°26' W 042°46'612.7
2018-Feb-12 09:15S 23°24' W 042°40'612.8
2018-Feb-12 08:47S 23°22' W 042°34'  
Track history (hours):
 
Tides and Currents Weather Stations Pressure Air Temp Water Temp Dewpoint Dewpoint Depression Visibility Wind Speed Wind Dir Waves Ship Positions

Chise Bulker

Last reported at 2018-Feb-20 00:40 UTC. Time now 2018-Jun-24 12:53 UTC.
Position S 23°23' W 042°34'.
Warning: this ship's position is months out of date.

Length 179 m; draft 9.8 m.

Type: Cargo ship. MMSI: 370392000.

Date/timePositionNaut miles runAvg speedWind from/ knotsBaromVisibWave heightAir tempDewpointWater temp
2018-Feb-20 00:40S 23°23' W 042°34'210.8
2018-Feb-20 00:27S 23°24' W 042°37'610.8
2018-Feb-19 23:54S 23°25' W 042°43'1310.4
2018-Feb-19 22:41S 23°29' W 042°56'210.4
2018-Feb-19 22:27S 23°30' W 042°59'510.5
2018-Feb-19 22:00S 23°31' W 043°04'610.7
2018-Feb-19 21:25S 23°33' W 043°10'410.8
2018-Feb-19 21:00S 23°34' W 043°15'510.8
2018-Feb-19 20:30S 23°36' W 043°20'510.8
2018-Feb-19 20:00S 23°38' W 043°26'610.8
2018-Feb-19 19:28S 23°39' W 043°32'510.8
2018-Feb-19 19:01S 23°41' W 043°37'610.8
2018-Feb-19 18:29S 23°43' W 043°43'1011.0
2018-Feb-19 17:33S 23°46' W 043°54'011.1
2018-Feb-19 17:30S 23°46' W 043°54'13810.0
2018-Feb-19 03:47S 24°07' W 046°23'311.7
2018-Feb-19 03:30S 24°03' W 046°22'5 9.0
2018-Feb-19 03:00S 23°60' W 046°19'2 4.9
2018-Feb-19 02:30S 23°57' W 046°18'3 6.8
2018-Feb-19 02:00S 23°55' W 046°21'2 4.6
2018-Feb-19 01:30S 23°53' W 046°23'0 0.0
2018-Feb-17 12:54S 23°53' W 046°22'0 0.0
2018-Feb-17 07:56S 23°53' W 046°22'0 0.0
2018-Feb-17 07:26S 23°53' W 046°22'0 0.0
2018-Feb-17 06:38S 23°53' W 046°22'0 0.0
2018-Feb-17 06:14S 23°53' W 046°22'0 0.0
2018-Feb-17 05:56S 23°53' W 046°22'0 0.0
2018-Feb-17 05:26S 23°53' W 046°22'0 0.0
2018-Feb-17 04:50S 23°53' W 046°22'0 0.0
2018-Feb-17 04:14S 23°53' W 046°22'0 0.0
2018-Feb-17 03:56S 23°53' W 046°22'0 0.0
2018-Feb-17 03:02S 23°53' W 046°22'0 0.0
2018-Feb-16 16:44S 23°53' W 046°22'0 0.0
2018-Feb-16 15:21S 23°53' W 046°22'0 0.4
2018-Feb-16 15:00S 23°53' W 046°23'3 4.7
2018-Feb-16 14:28S 23°55' W 046°22'4 7.8
2018-Feb-16 14:00S 23°57' W 046°18'3 5.3
2018-Feb-16 13:30S 23°60' W 046°19'611.2
2018-Feb-16 12:59S 24°05' W 046°22'1 1.0
2018-Feb-16 12:16S 24°06' W 046°22'0 0.0
2018-Feb-16 11:58S 24°06' W 046°22'0 0.0
2018-Feb-16 11:16S 24°06' W 046°22'0 0.0
2018-Feb-16 10:58S 24°06' W 046°22'0 0.0
2018-Feb-16 10:16S 24°06' W 046°22'0 0.0
2018-Feb-16 09:28S 24°06' W 046°22'0 0.0
2018-Feb-16 08:58S 24°06' W 046°22'0 0.0
2018-Feb-16 08:28S 24°06' W 046°22'0 0.0
2018-Feb-16 07:55S 24°06' W 046°22'0 0.0
2018-Feb-16 07:28S 24°06' W 046°22'0 0.0
2018-Feb-16 06:58S 24°06' W 046°22'0 0.0
2018-Feb-15 21:52S 24°06' W 046°22'0 0.0
2018-Feb-15 21:04S 24°06' W 046°22'0 0.0
2018-Feb-15 20:46S 24°06' W 046°22'0 0.1
2018-Feb-15 20:04S 24°06' W 046°22'0 0.0
2018-Feb-15 19:58S 24°06' W 046°22'0 0.0
2018-Feb-14 12:00S 24°06' W 046°22'2 0.7
2018-Feb-14 08:40S 24°03' W 046°21'0 0.1
2018-Feb-14 07:43S 24°03' W 046°21'0 0.0
2018-Feb-14 07:16S 24°03' W 046°21'0 0.0
2018-Feb-14 06:19S 24°03' W 046°21'0 0.1
2018-Feb-14 05:52S 24°03' W 046°21'0 0.0
2018-Feb-14 03:52S 24°03' W 046°21'0 0.0
2018-Feb-14 03:22S 24°03' W 046°21'0 0.0
2018-Feb-13 14:52S 24°03' W 046°21'0 0.1
2018-Feb-13 14:22S 24°03' W 046°21'0 0.0
2018-Feb-13 13:52S 24°03' W 046°21'0 0.0
2018-Feb-13 12:40S 24°03' W 046°21'0 0.1
2018-Feb-13 12:22S 24°03' W 046°21'0 0.0
2018-Feb-13 07:13S 24°03' W 046°21'0 0.0
2018-Feb-13 06:58S 24°03' W 046°21'0 0.0
2018-Feb-13 06:28S 24°03' W 046°21'0 0.0
2018-Feb-13 05:34S 24°03' W 046°21'0 0.1
2018-Feb-13 05:22S 24°03' W 046°21'0 0.4
2018-Feb-13 05:00S 24°03' W 046°21'0 0.1
2018-Feb-13 04:26S 24°03' W 046°21'2 3.9
2018-Feb-13 04:00S 24°05' W 046°22'14210.5
2018-Feb-12 14:25S 23°44' W 043°48'612.4
2018-Feb-12 13:57S 23°42' W 043°42'512.3
2018-Feb-12 13:30S 23°40' W 043°36'612.4
2018-Feb-12 12:59S 23°39' W 043°30'612.5
2018-Feb-12 12:30S 23°37' W 043°23'612.7
2018-Feb-12 12:00S 23°35' W 043°17'612.7
2018-Feb-12 11:30S 23°33' W 043°10'612.7
2018-Feb-12 11:00S 23°31' W 043°04'1712.8
2018-Feb-12 09:41S 23°26' W 042°46'612.7
2018-Feb-12 09:15S 23°24' W 042°40'612.8
2018-Feb-12 08:47S 23°22' W 042°34'  

Dump ship's entire track history